Time;durP1;ratioP1;P1;durP2;ratioP2;P2;SDS_P1;SDS_P2;PMS_P1;PMS_P2;Temp;Humidity;BMP_temperature;BMP_pressure;BME280_temperature;BME280_humidity;BME280_pressure;Samples;Min_cycle;Max_cycle;Signal;HPM_P1;HPM_P2
2023/07/23 00:00:17;;;;;;;9.93;4.95;;;15.10;99.90;;;;;;4996910;28;20092;-84
2023/07/23 00:02:43;;;;;;;12.43;8.23;;;15.10;99.90;;;;;;4996676;28;20481;-84
2023/07/23 00:05:09;;;;;;;12.23;8.38;;;15.10;99.90;;;;;;4997174;28;20083;-84
2023/07/23 00:07:34;;;;;;;14.20;9.02;;;15.20;99.90;;;;;;4996049;28;20038;-84
2023/07/23 00:10:00;;;;;;;11.48;5.07;;;15.20;99.90;;;;;;4996800;28;20049;-84
2023/07/23 00:12:25;;;;;;;13.35;8.80;;;15.10;99.90;;;;;;4980464;28;20046;-84
2023/07/23 00:14:51;;;;;;;12.13;8.77;;;15.20;99.90;;;;;;4996638;28;20414;-84
2023/07/23 00:17:16;;;;;;;12.60;9.90;;;15.20;99.90;;;;;;4996474;28;20037;-84
2023/07/23 00:19:42;;;;;;;13.50;8.65;;;15.20;99.90;;;;;;4996856;28;20104;-84
2023/07/23 00:22:07;;;;;;;10.25;4.75;;;15.20;99.90;;;;;;4996497;28;20120;-84
2023/07/23 00:24:33;;;;;;;13.35;8.73;;;15.20;99.90;;;;;;4996507;28;20077;-84
2023/07/23 00:26:59;;;;;;;9.25;4.15;;;15.20;99.90;;;;;;4996148;28;20068;-84
2023/07/23 00:29:24;;;;;;;10.48;3.80;;;15.20;99.90;;;;;;4996698;28;20044;-85
2023/07/23 00:31:50;;;;;;;9.38;4.38;;;15.20;99.90;;;;;;4996579;28;20068;-84
2023/07/23 00:34:15;;;;;;;13.63;8.25;;;15.10;99.90;;;;;;4980567;28;20414;-85
2023/07/23 00:36:41;;;;;;;12.55;8.18;;;15.20;99.90;;;;;;4979868;28;20068;-84
2023/07/23 00:39:07;;;;;;;14.60;8.50;;;15.20;99.90;;;;;;4996283;28;20091;-84
2023/07/23 00:41:32;;;;;;;13.82;7.97;;;15.30;99.90;;;;;;4980441;28;20111;-84
2023/07/23 00:43:58;;;;;;;9.68;3.90;;;15.30;99.90;;;;;;4979671;28;20057;-84
2023/07/23 00:46:24;;;;;;;9.18;3.88;;;15.20;99.90;;;;;;4995861;28;20048;-84
2023/07/23 00:48:50;;;;;;;12.85;8.50;;;15.20;99.90;;;;;;4996239;28;20406;-84
2023/07/23 00:51:16;;;;;;;14.45;8.63;;;15.20;99.90;;;;;;4995880;28;20507;-84
2023/07/23 00:53:43;;;;;;;10.85;4.22;;;15.30;99.90;;;;;;5013875;28;20252;-85
2023/07/23 00:56:09;;;;;;;11.00;4.70;;;15.20;99.90;;;;;;4995975;28;20048;-85
2023/07/23 00:58:34;;;;;;;10.45;4.88;;;15.20;99.90;;;;;;4980072;28;20030;-85
2023/07/23 01:01:00;;;;;;;12.15;8.40;;;15.20;99.90;;;;;;4996180;28;20045;-85
2023/07/23 01:03:26;;;;;;;12.77;8.75;;;15.20;99.90;;;;;;4995512;28;20132;-85
2023/07/23 01:05:58;;;;;;;11.13;4.70;;;15.20;99.90;;;;;;4995387;28;20128;-85
2023/07/23 01:08:25;;;;;;;11.35;5.53;;;15.20;99.90;;;;;;4995302;28;20104;-85
2023/07/23 01:10:51;;;;;;;11.88;8.30;;;15.20;99.90;;;;;;4995228;28;20050;-85
2023/07/23 01:13:17;;;;;;;11.55;5.25;;;15.20;99.90;;;;;;4996053;28;20036;-85
2023/07/23 01:15:43;;;;;;;12.30;8.77;;;15.20;99.90;;;;;;4979475;28;20046;-85
2023/07/23 01:18:11;;;;;;;9.43;4.97;;;15.20;99.90;;;;;;4996036;28;20124;-85
2023/07/23 01:20:36;;;;;;;9.05;3.58;;;15.20;99.90;;;;;;4979426;28;20092;-85
2023/07/23 01:23:02;;;;;;;8.32;4.20;;;15.10;99.90;;;;;;4979483;28;20465;-84
2023/07/23 01:25:27;;;;;;;9.18;4.80;;;15.10;99.90;;;;;;4995958;28;20568;-85
2023/07/23 01:27:53;;;;;;;13.82;9.00;;;15.10;99.90;;;;;;4994900;28;20038;-85
2023/07/23 01:30:19;;;;;;;12.90;8.73;;;15.10;99.90;;;;;;4979113;28;20065;-85
2023/07/23 01:32:47;;;;;;;14.43;10.00;;;15.10;99.90;;;;;;4995435;28;20049;-85
2023/07/23 01:35:15;;;;;;;11.00;4.03;;;15.10;99.90;;;;;;4994916;28;20080;-85
2023/07/23 01:37:47;;;;;;;13.23;9.23;;;15.10;99.90;;;;;;4995262;28;20085;-85
2023/07/23 01:40:14;;;;;;;11.53;5.23;;;15.10;99.90;;;;;;5011587;28;20045;-85
2023/07/23 01:42:42;;;;;;;12.77;5.55;;;15.00;99.90;;;;;;4995498;28;20095;-85
2023/07/23 01:45:08;;;;;;;14.43;9.77;;;15.00;99.90;;;;;;4979332;28;20495;-85
2023/07/23 01:47:34;;;;;;;11.13;5.95;;;15.00;99.90;;;;;;4978529;28;20038;-85
2023/07/23 01:49:59;;;;;;;13.00;9.25;;;15.00;99.90;;;;;;4994948;28;20034;-85
2023/07/23 01:52:26;;;;;;;12.90;5.63;;;15.00;99.90;;;;;;4978833;28;20406;-84
2023/07/23 01:54:51;;;;;;;11.15;5.57;;;15.00;99.90;;;;;;4978969;28;20038;-85
2023/07/23 01:57:17;;;;;;;13.57;9.38;;;15.00;99.90;;;;;;4994857;28;20034;-85
2023/07/23 01:59:43;;;;;;;10.57;4.93;;;15.00;99.90;;;;;;4995022;28;20042;-85
2023/07/23 02:02:10;;;;;;;14.05;10.05;;;15.00;99.90;;;;;;4994827;28;20081;-85
2023/07/23 02:04:36;;;;;;;14.38;10.35;;;15.10;99.90;;;;;;4994838;28;20049;-85
2023/07/23 02:07:02;;;;;;;10.15;4.38;;;15.10;99.90;;;;;;4994757;28;20567;-85
2023/07/23 02:09:28;;;;;;;10.63;5.93;;;15.10;99.90;;;;;;4994735;28;20072;-85
2023/07/23 02:11:54;;;;;;;17.02;11.55;;;15.00;99.90;;;;;;4993920;28;20068;-85
2023/07/23 02:14:19;;;;;;;14.45;10.70;;;15.10;99.90;;;;;;4978016;28;20405;-85
2023/07/23 02:16:45;;;;;;;13.90;6.75;;;15.10;99.90;;;;;;4994454;28;20120;-84
2023/07/23 02:19:12;;;;;;;11.15;5.18;;;15.10;99.90;;;;;;4978683;28;20482;-85
2023/07/23 02:21:38;;;;;;;12.65;6.25;;;15.00;99.90;;;;;;4977994;28;20046;-84
2023/07/23 02:24:05;;;;;;;14.75;6.60;;;15.00;99.90;;;;;;4994655;28;20038;-84
2023/07/23 02:26:30;;;;;;;16.65;7.03;;;15.00;99.90;;;;;;4994557;28;20129;-84
2023/07/23 02:28:56;;;;;;;15.25;11.45;;;15.00;99.90;;;;;;4978653;28;20054;-84
2023/07/23 02:31:21;;;;;;;15.38;11.27;;;15.10;99.90;;;;;;4977826;28;20584;-84
2023/07/23 02:33:47;;;;;;;15.35;11.32;;;15.10;99.90;;;;;;4994060;28;20048;-84
2023/07/23 02:36:12;;;;;;;13.48;6.35;;;15.20;99.90;;;;;;4993864;28;20048;-84
2023/07/23 02:38:38;;;;;;;14.55;10.80;;;15.10;99.90;;;;;;4978309;28;20060;-84
2023/07/23 02:41:04;;;;;;;14.70;7.32;;;15.10;99.90;;;;;;4993982;28;20038;-84
2023/07/23 02:43:29;;;;;;;10.45;5.82;;;15.10;99.90;;;;;;4994172;28;20037;-84
2023/07/23 02:45:55;;;;;;;16.27;10.20;;;15.10;99.90;;;;;;4994237;28;20052;-84
2023/07/23 02:48:21;;;;;;;11.60;6.60;;;15.10;99.90;;;;;;4994337;28;20125;-84
2023/07/23 02:50:46;;;;;;;11.30;5.90;;;15.10;99.90;;;;;;4993994;28;20038;-84
2023/07/23 02:53:12;;;;;;;14.68;10.30;;;15.10;99.90;;;;;;4993652;28;20050;-84
2023/07/23 02:55:37;;;;;;;14.77;6.07;;;15.10;99.90;;;;;;4993279;28;20038;-85
2023/07/23 02:58:04;;;;;;;13.02;6.03;;;15.10;99.90;;;;;;4994231;28;20101;-84
2023/07/23 03:00:30;;;;;;;13.50;10.52;;;15.10;99.90;;;;;;4977494;28;20050;-85
2023/07/23 03:02:56;;;;;;;12.10;5.82;;;15.10;99.90;;;;;;4993931;28;20037;-85
2023/07/23 03:05:24;;;;;;;14.77;10.63;;;15.20;99.90;;;;;;4993610;28;20129;-84
2023/07/23 03:07:51;;;;;;;12.80;6.72;;;15.20;99.90;;;;;;4993700;28;20042;-85
2023/07/23 03:10:17;;;;;;;15.50;11.65;;;15.20;99.90;;;;;;4994033;28;20048;-84
2023/07/23 03:12:43;;;;;;;11.75;5.50;;;15.20;99.90;;;;;;4993545;28;20410;-84
2023/07/23 03:15:09;;;;;;;12.57;6.60;;;15.20;99.90;;;;;;4977538;28;20135;-85
2023/07/23 03:17:34;;;;;;;10.70;5.85;;;15.20;99.90;;;;;;4993629;28;20041;-85
2023/07/23 03:20:00;;;;;;;11.48;6.97;;;15.10;99.90;;;;;;4993826;28;20148;-84
2023/07/23 03:22:26;;;;;;;17.67;11.57;;;15.20;99.90;;;;;;4993501;28;20037;-84
2023/07/23 03:24:51;;;;;;;15.43;11.25;;;15.20;99.90;;;;;;4993651;28;20180;-84
2023/07/23 03:27:17;;;;;;;14.88;10.43;;;15.20;99.90;;;;;;4993558;28;20108;-84
2023/07/23 03:29:42;;;;;;;11.98;6.15;;;15.20;99.90;;;;;;4993675;28;20037;-83
2023/07/23 03:32:08;;;;;;;13.15;10.52;;;15.20;99.90;;;;;;4977916;28;20089;-84
2023/07/23 03:34:34;;;;;;;16.10;11.80;;;15.20;99.90;;;;;;4997676;28;20125;-83
2023/07/23 03:36:59;;;;;;;12.00;5.65;;;15.20;99.90;;;;;;4981113;28;20041;-84
2023/07/23 03:39:25;;;;;;;12.77;6.95;;;15.20;99.90;;;;;;4997451;28;20045;-84
2023/07/23 03:41:51;;;;;;;11.35;6.88;;;15.20;99.90;;;;;;4980886;28;20048;-84
2023/07/23 03:44:16;;;;;;;13.75;10.88;;;15.10;99.90;;;;;;4980813;28;20038;-84
2023/07/23 03:46:59;;;;;;;14.40;11.05;;;15.20;99.90;;;;;;4996918;28;20076;-84
2023/07/23 03:49:25;;;;;;;12.65;6.82;;;15.30;99.90;;;;;;4981660;28;20046;-84
2023/07/23 03:51:50;;;;;;;13.15;11.30;;;15.20;99.90;;;;;;4981004;28;20409;-84
2023/07/23 03:54:16;;;;;;;12.25;5.30;;;15.30;99.90;;;;;;4997511;28;20045;-84
2023/07/23 03:56:42;;;;;;;13.40;11.63;;;15.20;99.90;;;;;;4996496;28;20091;-84
2023/07/23 03:59:07;;;;;;;13.13;7.13;;;15.30;99.90;;;;;;4997454;28;20042;-84
2023/07/23 04:01:33;;;;;;;13.50;6.70;;;15.30;99.90;;;;;;4996644;28;20422;-84
2023/07/23 04:03:59;;;;;;;12.80;7.18;;;15.20;99.90;;;;;;4997152;28;20041;-84
2023/07/23 04:06:26;;;;;;;14.05;11.75;;;15.20;99.90;;;;;;4996735;28;20563;-84
2023/07/23 04:08:52;;;;;;;11.55;6.75;;;15.30;99.90;;;;;;4997404;28;20077;-84
2023/07/23 04:11:17;;;;;;;16.83;12.52;;;15.30;99.90;;;;;;4997369;28;20150;-84
2023/07/23 04:13:43;;;;;;;14.98;11.35;;;15.30;99.90;;;;;;4997133;28;20757;-84
2023/07/23 04:16:11;;;;;;;15.80;12.70;;;15.30;99.90;;;;;;4996396;28;20081;-83
2023/07/23 04:18:50;;;;;;;12.45;7.28;;;15.40;99.90;;;;;;4996781;28;20038;-84
2023/07/23 04:21:18;;;;;;;13.55;6.60;;;15.30;99.90;;;;;;4996598;28;20054;-84
2023/07/23 04:23:51;;;;;;;16.23;12.00;;;15.20;99.90;;;;;;4996445;28;20045;-84
2023/07/23 04:26:17;;;;;;;15.30;12.27;;;15.30;99.90;;;;;;4996461;28;20124;-84
2023/07/23 04:28:44;;;;;;;12.55;6.88;;;15.30;99.90;;;;;;4996855;28;20129;-83
2023/07/23 04:31:10;;;;;;;11.80;6.57;;;15.30;99.90;;;;;;4996921;28;20048;-84
2023/07/23 04:33:36;;;;;;;11.52;7.22;;;15.20;99.90;;;;;;4980513;28;20041;-84
2023/07/23 04:36:07;;;;;;;14.93;12.07;;;15.20;99.90;;;;;;4979842;28;20044;-83
2023/07/23 04:38:32;;;;;;;14.05;12.38;;;15.30;99.90;;;;;;4996136;28;20413;-83
2023/07/23 04:40:58;;;;;;;16.67;12.50;;;15.30;99.90;;;;;;4996082;28;20050;-83
2023/07/23 04:43:24;;;;;;;15.52;12.60;;;15.40;99.90;;;;;;4995648;28;20041;-84
2023/07/23 04:45:49;;;;;;;11.73;6.57;;;15.40;99.90;;;;;;4995513;28;20052;-84
2023/07/23 04:48:16;;;;;;;13.50;6.60;;;15.30;99.90;;;;;;4996731;28;20053;-84
2023/07/23 04:50:42;;;;;;;15.55;11.80;;;15.30;99.90;;;;;;4980236;28;20044;-84
2023/07/23 04:53:07;;;;;;;15.23;12.77;;;15.30;99.90;;;;;;4979974;28;20466;-83
2023/07/23 04:55:33;;;;;;;16.30;12.95;;;15.40;99.90;;;;;;4996242;28;20046;-84
2023/07/23 04:57:59;;;;;;;11.10;5.68;;;15.40;99.90;;;;;;4979052;28;20379;-83
2023/07/23 05:00:25;;;;;;;15.73;8.23;;;15.40;99.90;;;;;;5012296;28;20076;-84
2023/07/23 05:02:51;;;;;;;13.35;6.78;;;15.30;99.90;;;;;;4979546;28;20125;-83
2023/07/23 05:05:16;;;;;;;13.27;6.55;;;15.30;99.90;;;;;;4995903;28;20038;-83
2023/07/23 05:07:42;;;;;;;17.92;12.52;;;15.30;99.90;;;;;;4996075;28;20454;-83
2023/07/23 05:10:08;;;;;;;17.77;13.07;;;15.40;99.90;;;;;;4980103;28;20398;-83
2023/07/23 05:12:34;;;;;;;12.50;6.75;;;15.40;99.90;;;;;;4979854;28;20042;-83
2023/07/23 05:15:11;;;;;;;16.35;12.38;;;15.40;99.90;;;;;;4979875;28;20050;-83
2023/07/23 05:17:37;;;;;;;15.75;12.30;;;15.40;99.90;;;;;;4995476;28;20069;-84
2023/07/23 05:20:06;;;;;;;12.00;7.07;;;15.50;99.90;;;;;;4979329;28;20038;-84
2023/07/23 05:22:32;;;;;;;13.50;8.15;;;15.50;99.90;;;;;;4995322;28;20084;-84
2023/07/23 05:24:58;;;;;;;17.58;11.98;;;15.40;99.90;;;;;;4995351;28;20084;-84
2023/07/23 05:27:23;;;;;;;15.05;12.30;;;15.50;99.90;;;;;;4995621;28;20080;-84
2023/07/23 05:29:49;;;;;;;15.75;12.63;;;15.60;99.90;;;;;;4979563;28;20457;-84
2023/07/23 05:32:14;;;;;;;15.98;7.60;;;15.60;99.90;;;;;;4995738;28;20042;-84
2023/07/23 05:34:40;;;;;;;14.70;11.43;;;15.60;99.90;;;;;;4979441;28;20410;-84
2023/07/23 05:37:05;;;;;;;18.80;12.27;;;15.60;99.90;;;;;;4978739;28;20073;-84
2023/07/23 05:39:31;;;;;;;13.07;7.88;;;15.70;99.90;;;;;;4995378;28;20060;-84
2023/07/23 05:41:57;;;;;;;15.90;11.55;;;15.60;99.90;;;;;;4995159;28;20041;-84
2023/07/23 05:44:25;;;;;;;11.32;6.22;;;15.60;99.90;;;;;;4978526;28;20490;-85
2023/07/23 05:46:50;;;;;;;15.82;11.30;;;15.70;99.90;;;;;;4978431;28;20042;-84
2023/07/23 05:49:16;;;;;;;15.10;11.65;;;15.70;99.90;;;;;;4995526;28;20038;-84
2023/07/23 05:51:42;;;;;;;12.25;6.35;;;15.70;99.90;;;;;;4979148;28;20466;-84
2023/07/23 05:54:07;;;;;;;13.05;6.70;;;15.70;99.90;;;;;;4995685;28;20037;-84
2023/07/23 05:56:33;;;;;;;14.68;10.20;;;15.70;99.90;;;;;;4993753;28;20034;-84
2023/07/23 05:58:59;;;;;;;14.38;10.45;;;15.80;99.90;;;;;;4978572;28;20042;-84
2023/07/23 06:01:25;;;;;;;17.58;10.15;;;15.80;99.90;;;;;;4994833;28;20046;-84
2023/07/23 06:03:50;;;;;;;16.05;11.27;;;15.90;99.90;;;;;;4978135;28;20069;-84
2023/07/23 06:06:16;;;;;;;14.95;10.20;;;15.90;99.90;;;;;;4977962;28;20073;-84
2023/07/23 06:08:42;;;;;;;12.43;6.60;;;16.00;99.90;;;;;;4995366;28;20136;-84
2023/07/23 06:11:07;;;;;;;12.25;5.72;;;16.00;99.90;;;;;;4995264;28;20442;-84
2023/07/23 06:13:33;;;;;;;12.90;6.28;;;16.00;99.90;;;;;;4995121;28;20037;-84
2023/07/23 06:15:58;;;;;;;15.23;9.93;;;16.00;99.90;;;;;;4985911;28;20033;-83
2023/07/23 06:18:24;;;;;;;13.88;10.25;;;16.00;99.90;;;;;;4991159;28;20417;-84
2023/07/23 06:20:49;;;;;;;13.45;6.28;;;16.10;99.90;;;;;;4994315;28;20046;-84
2023/07/23 06:23:15;;;;;;;16.73;10.45;;;16.10;99.90;;;;;;4988480;28;20050;-84
2023/07/23 06:25:46;;;;;;;13.80;9.90;;;16.10;99.90;;;;;;4982741;28;20570;-84
2023/07/23 06:28:11;;;;;;;12.18;6.07;;;16.20;99.90;;;;;;4984044;28;20046;-84
2023/07/23 06:30:37;;;;;;;10.45;4.75;;;16.20;99.90;;;;;;4984230;28;20530;-84
2023/07/23 06:33:02;;;;;;;13.68;9.77;;;16.20;99.90;;;;;;4983507;28;20033;-84
2023/07/23 06:35:28;;;;;;;15.43;10.25;;;16.30;99.90;;;;;;4969077;28;20161;-84
2023/07/23 06:37:53;;;;;;;14.55;9.75;;;16.40;99.90;;;;;;4988849;28;20478;-83
2023/07/23 06:40:19;;;;;;;14.00;9.18;;;16.40;99.90;;;;;;4978138;28;20034;-84
2023/07/23 06:42:45;;;;;;;15.10;10.05;;;16.50;99.90;;;;;;4993985;28;20442;-84
2023/07/23 06:45:11;;;;;;;15.30;6.95;;;16.50;99.90;;;;;;4993904;28;20514;-84
2023/07/23 06:47:38;;;;;;;17.40;6.55;;;16.50;99.90;;;;;;4993845;28;20042;-83
2023/07/23 06:50:04;;;;;;;13.55;9.15;;;16.50;99.90;;;;;;4994274;28;20096;-84
2023/07/23 06:52:30;;;;;;;11.02;5.57;;;16.60;99.90;;;;;;4994043;28;20038;-84
2023/07/23 06:54:55;;;;;;;15.52;9.65;;;16.60;99.90;;;;;;4977986;28;20049;-84
2023/07/23 06:57:21;;;;;;;14.07;9.48;;;16.70;99.90;;;;;;4993479;28;20153;-84
2023/07/23 06:59:48;;;;;;;11.50;5.30;;;16.70;99.90;;;;;;4993645;28;20033;-84
2023/07/23 07:02:14;;;;;;;13.93;9.40;;;16.70;99.90;;;;;;4993298;28;20041;-84
2023/07/23 07:04:40;;;;;;;10.35;5.43;;;16.70;99.90;;;;;;4977511;28;20133;-83
2023/07/23 07:07:06;;;;;;;14.02;9.15;;;16.70;99.90;;;;;;4964838;28;20045;-83
2023/07/23 07:09:31;;;;;;;10.60;6.10;;;16.70;99.90;;;;;;4963882;28;20038;-84
2023/07/23 07:11:57;;;;;;;13.00;9.55;;;16.70;99.90;;;;;;4985307;28;20038;-84
2023/07/23 07:14:22;;;;;;;13.25;6.88;;;16.80;99.90;;;;;;4968139;28;20029;-84
2023/07/23 07:16:48;;;;;;;12.38;9.43;;;16.80;99.90;;;;;;4998417;28;20026;-84
2023/07/23 07:19:14;;;;;;;13.68;9.88;;;16.80;99.90;;;;;;4990090;28;20168;-84
2023/07/23 07:21:39;;;;;;;12.85;6.03;;;16.90;99.90;;;;;;4993617;28;20433;-84
2023/07/23 07:24:06;;;;;;;13.50;9.05;;;16.80;99.90;;;;;;4993665;28;20143;-83
2023/07/23 07:26:32;;;;;;;13.20;5.53;;;16.90;99.90;;;;;;4977204;28;20053;-83
2023/07/23 07:28:58;;;;;;;11.57;5.20;;;16.80;99.90;;;;;;4977482;28;20041;-83
2023/07/23 07:31:23;;;;;;;9.70;5.15;;;16.70;99.90;;;;;;4993066;28;20052;-83
2023/07/23 07:33:49;;;;;;;15.15;10.07;;;16.70;99.90;;;;;;4993636;28;20037;-83
2023/07/23 07:36:17;;;;;;;16.08;9.55;;;16.70;99.90;;;;;;4977549;28;20042;-83
2023/07/23 07:38:43;;;;;;;13.55;9.27;;;16.70;99.90;;;;;;4976585;28;20081;-83
2023/07/23 07:41:09;;;;;;;17.70;10.18;;;16.80;99.90;;;;;;4993682;28;20104;-83
2023/07/23 07:43:35;;;;;;;14.75;9.65;;;16.70;99.90;;;;;;4993302;28;20073;-83
2023/07/23 07:46:03;;;;;;;13.90;9.80;;;16.70;99.90;;;;;;4993172;28;20037;-83
2023/07/23 07:48:29;;;;;;;11.88;6.28;;;16.70;99.90;;;;;;4977391;28;20041;-83
2023/07/23 07:50:59;;;;;;;11.05;5.63;;;16.70;99.90;;;;;;4977519;28;20537;-84
2023/07/23 07:53:25;;;;;;;14.70;10.00;;;16.60;99.90;;;;;;4993591;28;20125;-84
2023/07/23 07:55:50;;;;;;;10.98;6.25;;;16.60;99.90;;;;;;4974666;28;20117;-84
2023/07/23 07:58:17;;;;;;;13.75;9.65;;;16.60;99.90;;;;;;4973516;28;20038;-84
2023/07/23 08:00:43;;;;;;;11.98;5.72;;;16.60;99.90;;;;;;4982293;28;20092;-84
2023/07/23 08:03:09;;;;;;;15.05;10.07;;;16.50;99.90;;;;;;4973771;28;20033;-84
2023/07/23 08:05:36;;;;;;;14.02;10.13;;;16.50;99.90;;;;;;4970198;28;20072;-84
2023/07/23 08:08:04;;;;;;;14.63;9.93;;;16.50;99.90;;;;;;5002907;28;20038;-84
2023/07/23 08:10:33;;;;;;;15.25;10.20;;;16.50;99.90;;;;;;4982613;28;20045;-84
2023/07/23 08:12:59;;;;;;;15.68;9.60;;;16.50;99.90;;;;;;4982267;28;20038;-84
2023/07/23 08:15:24;;;;;;;10.73;4.22;;;16.40;99.90;;;;;;4982881;28;20059;-84
2023/07/23 08:17:52;;;;;;;11.88;8.50;;;16.30;99.90;;;;;;4967265;28;20121;-85
2023/07/23 08:20:19;;;;;;;15.65;9.15;;;16.30;99.90;;;;;;4996897;28;20038;-84
2023/07/23 08:22:53;;;;;;;14.13;9.75;;;16.30;99.90;;;;;;4978836;28;20049;-84
2023/07/23 08:25:19;;;;;;;13.82;8.77;;;16.30;99.90;;;;;;5000833;28;20034;-84
2023/07/23 08:27:47;;;;;;;10.48;5.18;;;16.30;99.90;;;;;;4986118;28;20030;-85
2023/07/23 08:30:16;;;;;;;13.88;9.52;;;16.30;99.90;;;;;;4987342;28;20042;-84
2023/07/23 08:32:46;;;;;;;13.30;9.05;;;16.30;99.90;;;;;;4979850;28;20038;-84
2023/07/23 08:35:12;;;;;;;12.60;5.43;;;16.30;99.90;;;;;;4979506;28;20030;-84
2023/07/23 08:37:37;;;;;;;14.05;8.95;;;16.20;99.90;;;;;;4991216;28;20034;-84
2023/07/23 08:40:04;;;;;;;12.43;8.65;;;16.30;99.90;;;;;;4971947;28;20046;-84
2023/07/23 08:42:55;;;;;;;12.63;8.18;;;16.30;99.90;;;;;;4979693;28;20089;-84
2023/07/23 08:45:30;;;;;;;13.30;9.48;;;16.30;99.90;;;;;;4968232;28;20053;-83
2023/07/23 08:48:16;;;;;;;11.65;4.40;;;16.20;99.90;;;;;;4964198;28;20120;-84
2023/07/23 08:50:44;;;;;;;9.00;4.05;;;16.20;99.90;;;;;;4970469;28;20034;-84
2023/07/23 08:53:11;;;;;;;11.80;5.13;;;16.20;99.90;;;;;;4988439;28;20121;-84
2023/07/23 08:55:41;;;;;;;12.23;8.10;;;16.20;99.90;;;;;;4989722;28;20045;-84
2023/07/23 08:58:07;;;;;;;9.98;4.53;;;16.20;99.90;;;;;;4997954;28;20384;-84
2023/07/23 09:00:33;;;;;;;10.68;6.03;;;16.20;99.90;;;;;;4980619;28;20045;-84
2023/07/23 09:03:03;;;;;;;14.07;9.50;;;16.20;99.90;;;;;;4986029;28;20034;-84
2023/07/23 09:05:32;;;;;;;12.80;5.55;;;16.20;99.90;;;;;;4985089;28;20069;-84
2023/07/23 09:08:01;;;;;;;12.15;9.10;;;16.20;99.90;;;;;;4989801;28;20053;-84
2023/07/23 09:10:27;;;;;;;14.32;8.35;;;16.20;99.90;;;;;;4979188;28;20030;-84
2023/07/23 09:12:55;;;;;;;13.13;8.80;;;16.30;99.90;;;;;;4975993;28;20033;-84
2023/07/23 09:15:20;;;;;;;16.38;9.18;;;16.30;99.90;;;;;;4982695;28;20065;-84
2023/07/23 09:17:50;;;;;;;11.88;9.02;;;16.20;99.90;;;;;;4984972;28;20403;-84
2023/07/23 09:20:19;;;;;;;13.57;9.00;;;16.30;99.90;;;;;;4968025;28;20491;-84
2023/07/23 09:22:48;;;;;;;13.15;8.98;;;16.30;99.90;;;;;;4984666;28;20411;-84
2023/07/23 09:25:14;;;;;;;12.88;8.38;;;16.30;99.90;;;;;;4985355;28;20539;-84
2023/07/23 09:27:42;;;;;;;7.60;3.90;;;16.20;99.90;;;;;;4986113;28;20037;-84
2023/07/23 09:30:20;;;;;;;12.82;8.63;;;16.20;99.90;;;;;;4984205;28;20057;-84
2023/07/23 09:32:56;;;;;;;11.35;5.38;;;16.20;99.90;;;;;;4986579;28;20569;-84
2023/07/23 09:35:23;;;;;;;11.35;8.23;;;16.20;99.90;;;;;;4986115;28;20029;-84
2023/07/23 09:37:59;;;;;;;11.95;8.45;;;16.20;99.90;;;;;;4968450;28;20035;-84
2023/07/23 09:40:38;;;;;;;9.07;4.95;;;16.30;99.90;;;;;;4969784;28;20038;-84
2023/07/23 09:43:04;;;;;;;9.05;4.32;;;16.20;99.90;;;;;;4972052;28;20482;-84
2023/07/23 09:45:33;;;;;;;8.70;3.97;;;16.30;99.90;;;;;;4985225;28;20038;-84
2023/07/23 09:48:01;;;;;;;11.95;7.60;;;16.30;99.90;;;;;;4983982;28;20460;-84
2023/07/23 09:50:26;;;;;;;10.98;7.05;;;16.40;99.90;;;;;;4969648;28;20045;-84
2023/07/23 09:52:52;;;;;;;7.82;3.60;;;16.40;99.90;;;;;;4985356;28;20031;-84
2023/07/23 09:55:19;;;;;;;7.38;3.53;;;16.40;99.90;;;;;;4967683;28;20042;-84
2023/07/23 09:57:49;;;;;;;10.50;7.30;;;16.40;99.90;;;;;;4985079;28;20040;-84
2023/07/23 10:00:15;;;;;;;5.97;3.38;;;16.50;99.90;;;;;;4983966;28;20042;-84
2023/07/23 10:02:43;;;;;;;10.15;5.75;;;16.40;99.90;;;;;;4985921;28;20492;-85
2023/07/23 10:05:10;;;;;;;7.65;3.00;;;16.50;99.90;;;;;;4983759;28;20047;-84
2023/07/23 10:07:39;;;;;;;8.98;6.07;;;16.40;99.90;;;;;;4984057;28;20038;-84
2023/07/23 10:10:08;;;;;;;8.25;3.35;;;16.50;99.90;;;;;;4969474;28;20495;-84
2023/07/23 10:12:34;;;;;;;9.32;5.70;;;16.50;99.90;;;;;;4984442;28;20125;-84
2023/07/23 10:15:00;;;;;;;9.10;5.38;;;16.50;99.90;;;;;;4967665;28;20463;-84
2023/07/23 10:17:28;;;;;;;6.82;3.08;;;16.50;99.90;;;;;;4969145;28;20061;-84
2023/07/23 10:19:56;;;;;;;9.88;6.05;;;16.50;99.90;;;;;;4968134;28;20515;-84
2023/07/23 10:22:23;;;;;;;9.02;6.10;;;16.50;99.90;;;;;;4983711;28;20046;-84
2023/07/23 10:24:52;;;;;;;8.43;3.13;;;16.60;99.90;;;;;;4991330;28;20053;-84
2023/07/23 10:27:18;;;;;;;10.05;6.18;;;16.50;99.90;;;;;;4967626;28;20042;-84
2023/07/23 10:30:18;;;;;;;8.10;3.88;;;16.60;99.90;;;;;;4983913;28;20037;-84
2023/07/23 10:32:47;;;;;;;6.93;3.53;;;16.60;99.90;;;;;;4986374;28;20104;-84
2023/07/23 10:35:33;;;;;;;9.07;6.22;;;16.60;99.90;;;;;;4985148;28;20539;-84
2023/07/23 10:38:21;;;;;;;9.35;5.85;;;16.60;99.90;;;;;;4984773;28;20045;-84
2023/07/23 10:40:47;;;;;;;8.85;6.03;;;16.60;99.90;;;;;;5000634;28;20048;-84
2023/07/23 10:43:14;;;;;;;8.18;3.58;;;16.70;99.90;;;;;;4982165;28;20077;-84
2023/07/23 10:45:59;;;;;;;8.15;4.45;;;16.70;99.90;;;;;;4967794;28;20077;-84
2023/07/23 10:48:43;;;;;;;10.48;6.70;;;16.60;99.90;;;;;;4985258;28;20042;-84
2023/07/23 10:51:13;;;;;;;9.77;6.82;;;16.70;99.90;;;;;;4974081;28;20034;-84
2023/07/23 10:53:53;;;;;;;10.60;4.35;;;16.70;99.90;;;;;;4958230;28;20088;-84
2023/07/23 10:56:32;;;;;;;7.28;3.65;;;16.70;99.90;;;;;;4957500;28;20038;-84
2023/07/23 10:59:03;;;;;;;8.88;3.67;;;16.70;99.90;;;;;;4974542;28;20041;-84
2023/07/23 11:01:33;;;;;;;9.85;6.80;;;16.60;99.90;;;;;;4979315;28;20050;-84
2023/07/23 11:03:59;;;;;;;10.60;4.63;;;16.70;99.90;;;;;;5000828;28;20124;-84
2023/07/23 11:06:32;;;;;;;11.02;7.00;;;16.70;99.90;;;;;;4978325;28;20070;-84
2023/07/23 11:09:03;;;;;;;9.50;6.35;;;16.80;99.90;;;;;;4957718;28;20049;-85
2023/07/23 11:11:37;;;;;;;12.00;6.70;;;16.80;99.90;;;;;;4958359;28;20047;-85
2023/07/23 11:14:16;;;;;;;10.48;7.40;;;16.80;99.90;;;;;;4958019;28;20042;-85
2023/07/23 11:16:42;;;;;;;10.27;7.22;;;16.90;99.90;;;;;;4973942;28;20038;-84
2023/07/23 11:19:08;;;;;;;12.27;7.03;;;16.90;99.90;;;;;;4958755;28;20092;-85
2023/07/23 11:21:33;;;;;;;9.85;6.75;;;16.90;99.90;;;;;;4973968;28;20415;-84
2023/07/23 11:23:59;;;;;;;9.60;4.40;;;16.90;99.90;;;;;;4974174;28;20100;-85
2023/07/23 11:26:25;;;;;;;8.25;4.78;;;16.90;99.90;;;;;;4973906;28;20056;-85
2023/07/23 11:28:51;;;;;;;8.82;4.07;;;16.90;99.90;;;;;;4958346;28;20503;-85
2023/07/23 11:31:17;;;;;;;10.43;6.65;;;16.90;99.90;;;;;;4957917;28;20065;-85
2023/07/23 11:33:42;;;;;;;10.68;7.43;;;16.90;99.90;;;;;;4974107;28;20419;-85
2023/07/23 11:36:09;;;;;;;11.50;6.90;;;17.00;99.90;;;;;;4973998;28;20073;-85
2023/07/23 11:38:34;;;;;;;10.27;6.68;;;17.00;99.90;;;;;;4974293;28;20519;-85
2023/07/23 11:41:00;;;;;;;9.82;4.63;;;17.00;99.90;;;;;;4974114;28;20069;-85
2023/07/23 11:43:26;;;;;;;10.57;6.50;;;17.00;99.90;;;;;;4966093;28;20065;-85
2023/07/23 11:45:52;;;;;;;10.52;6.20;;;17.00;99.90;;;;;;4983930;28;20495;-84
2023/07/23 11:48:20;;;;;;;10.93;6.53;;;17.10;99.90;;;;;;4966147;28;20081;-85
2023/07/23 11:50:46;;;;;;;9.63;6.60;;;17.10;99.90;;;;;;4966942;28;20069;-85
2023/07/23 11:53:12;;;;;;;8.70;3.78;;;17.20;99.90;;;;;;4968271;28;20034;-85
2023/07/23 11:55:38;;;;;;;8.65;3.53;;;17.20;99.90;;;;;;4969724;28;20069;-85
2023/07/23 11:58:04;;;;;;;8.50;5.20;;;17.10;99.90;;;;;;4977865;28;20101;-85
2023/07/23 12:00:35;;;;;;;9.77;5.55;;;17.10;99.90;;;;;;5001037;28;20026;-85
2023/07/23 12:03:02;;;;;;;8.85;5.10;;;17.20;99.90;;;;;;4970280;28;20096;-85
2023/07/23 12:05:28;;;;;;;8.90;4.90;;;17.30;99.90;;;;;;4986693;28;20050;-85
2023/07/23 12:07:53;;;;;;;6.95;2.88;;;17.30;99.90;;;;;;4984160;28;20038;-85
2023/07/23 12:10:20;;;;;;;8.95;4.28;;;17.30;99.90;;;;;;4976756;28;20121;-85
2023/07/23 12:12:46;;;;;;;8.40;4.40;;;17.30;99.90;;;;;;4996694;28;20506;-84
2023/07/23 12:15:16;;;;;;;8.60;4.07;;;17.30;99.90;;;;;;4996523;28;20042;-84
2023/07/23 12:17:43;;;;;;;8.80;3.90;;;17.40;99.90;;;;;;4996182;28;20049;-85
2023/07/23 12:20:10;;;;;;;5.65;2.13;;;17.40;99.90;;;;;;4996883;28;20046;-85
2023/07/23 12:22:52;;;;;;;7.55;3.92;;;17.40;99.90;;;;;;4996741;28;20042;-85
2023/07/23 12:25:18;;;;;;;7.63;4.10;;;17.40;99.90;;;;;;4980842;28;20042;-85
2023/07/23 12:27:44;;;;;;;7.63;3.90;;;17.40;99.90;;;;;;4996796;28;20056;-85
2023/07/23 12:30:10;;;;;;;7.00;2.60;;;17.50;99.90;;;;;;5014339;28;20379;-85
2023/07/23 12:32:35;;;;;;;6.93;3.70;;;17.50;99.90;;;;;;4979985;28;20038;-85
2023/07/23 12:35:01;;;;;;;6.63;3.33;;;17.50;99.90;;;;;;4996368;28;20092;-85